createdAt,value
2018-02-18T00:00:55.282Z,1017.03
2018-02-18T00:02:48.233Z,1017.02
2018-02-18T00:03:48.187Z,1016.99
2018-02-18T00:05:41.128Z,1017.02
2018-02-18T00:06:41.088Z,1017.00
2018-02-18T00:08:34.026Z,1016.97
2018-02-18T00:09:33.965Z,1017.01
2018-02-18T00:11:27.046Z,1017.03
2018-02-18T00:12:26.991Z,1017.06
2018-02-18T00:14:19.940Z,1017.06
2018-02-18T00:15:19.891Z,1017.03
2018-02-18T00:17:12.706Z,1017.03
2018-02-18T00:18:12.650Z,1017.03
2018-02-18T00:20:05.636Z,1017.07
2018-02-18T00:21:05.576Z,1017.02
2018-02-18T00:22:58.535Z,1016.99
2018-02-18T00:23:58.473Z,1016.98
2018-02-18T00:25:51.436Z,1017.01
2018-02-18T00:26:51.374Z,1017.04
2018-02-18T00:28:44.339Z,1017.05
2018-02-18T00:29:44.275Z,1017.05
2018-02-18T00:31:37.139Z,1017.04
2018-02-18T00:32:37.070Z,1017.05
2018-02-18T00:34:30.015Z,1017.06
2018-02-18T00:35:29.970Z,1017.08
2018-02-18T00:37:22.782Z,1017.12
2018-02-18T00:38:22.712Z,1017.12
2018-02-18T00:40:15.641Z,1017.17
2018-02-18T00:41:15.620Z,1017.17
2018-02-18T00:43:08.866Z,1017.19
2018-02-18T00:44:08.698Z,1017.21
2018-02-18T00:46:01.626Z,1017.21
2018-02-18T00:47:01.584Z,1017.22
2018-02-18T00:48:54.544Z,1017.17
2018-02-18T00:49:54.485Z,1017.18
2018-02-18T00:51:47.705Z,1017.25
2018-02-18T00:52:47.557Z,1017.25
2018-02-18T00:54:40.517Z,1017.25
2018-02-18T00:55:40.453Z,1017.21
2018-02-18T00:57:33.560Z,1017.24
2018-02-18T00:58:33.495Z,1017.27
2018-02-18T01:00:26.311Z,1017.27
2018-02-18T01:01:26.241Z,1017.30
2018-02-18T01:03:19.205Z,1017.30
2018-02-18T01:04:19.136Z,1017.29
2018-02-18T01:06:12.076Z,1017.31
2018-02-18T01:07:12.035Z,1017.30
2018-02-18T01:09:04.994Z,1017.31
2018-02-18T01:10:04.932Z,1017.32
2018-02-18T01:11:57.790Z,1017.35
2018-02-18T01:12:57.750Z,1017.32
2018-02-18T01:14:50.711Z,1017.33
2018-02-18T01:15:50.654Z,1017.33
2018-02-18T01:17:43.442Z,1017.29
2018-02-18T01:18:43.386Z,1017.31
2018-02-18T01:20:36.369Z,1017.32
2018-02-18T01:21:36.312Z,1017.35
2018-02-18T01:23:29.101Z,1017.35
2018-02-18T01:24:29.058Z,1017.41
2018-02-18T01:26:21.875Z,1017.45
2018-02-18T01:27:21.805Z,1017.44
2018-02-18T01:29:14.816Z,1017.46
2018-02-18T01:30:14.732Z,1017.44
2018-02-18T01:32:07.668Z,1017.41
2018-02-18T01:33:07.630Z,1017.35
2018-02-18T01:35:00.580Z,1017.34
2018-02-18T01:36:00.514Z,1017.37
2018-02-18T01:37:53.301Z,1017.36
2018-02-18T01:38:53.262Z,1017.37
2018-02-18T01:40:46.270Z,1017.39
2018-02-18T01:41:46.220Z,1017.47
2018-02-18T01:43:40.150Z,1017.45
2018-02-18T01:44:40.101Z,1017.45
2018-02-18T01:46:33.050Z,1017.50
2018-02-18T01:47:32.989Z,1017.50
2018-02-18T01:49:25.887Z,1017.46
2018-02-18T01:50:25.850Z,1017.45
2018-02-18T01:52:18.806Z,1017.45
2018-02-18T01:53:18.742Z,1017.48
2018-02-18T01:55:11.710Z,1017.48
2018-02-18T01:56:11.713Z,1017.50
2018-02-18T01:58:04.581Z,1017.53
2018-02-18T01:59:04.537Z,1017.52
2018-02-18T02:00:57.387Z,1017.46
2018-02-18T02:01:57.330Z,1017.45
2018-02-18T02:03:50.264Z,1017.35
2018-02-18T02:04:50.216Z,1017.30
2018-02-18T02:06:43.185Z,1017.26
2018-02-18T02:07:43.111Z,1017.26
2018-02-18T02:09:36.042Z,1017.28
2018-02-18T02:10:36.006Z,1017.26
2018-02-18T02:12:28.879Z,1017.28
2018-02-18T02:13:28.814Z,1017.26
2018-02-18T02:15:21.754Z,1017.26
2018-02-18T02:16:21.715Z,1017.24
2018-02-18T02:18:14.665Z,1017.25
2018-02-18T02:19:14.614Z,1017.26
2018-02-18T02:21:07.667Z,1017.28
2018-02-18T02:22:07.590Z,1017.31
2018-02-18T02:24:00.551Z,1017.34
2018-02-18T02:25:00.500Z,1017.36
2018-02-18T02:26:53.460Z,1017.34
2018-02-18T02:27:53.410Z,1017.32
2018-02-18T02:29:46.350Z,1017.32
2018-02-18T02:30:46.301Z,1017.32
2018-02-18T02:32:39.132Z,1017.35
2018-02-18T02:33:39.057Z,1017.35
2018-02-18T02:35:32.062Z,1017.34
2018-02-18T02:36:31.992Z,1017.34
2018-02-18T02:38:24.980Z,1017.36
2018-02-18T02:39:24.928Z,1017.34
2018-02-18T02:41:17.857Z,1017.32
2018-02-18T02:42:17.810Z,1017.29
2018-02-18T02:44:10.808Z,1017.38
2018-02-18T02:45:10.698Z,1017.36
2018-02-18T02:47:03.647Z,1017.38
2018-02-18T02:48:03.594Z,1017.41
2018-02-18T02:49:56.385Z,1017.40
2018-02-18T02:50:56.332Z,1017.40
2018-02-18T02:52:49.300Z,1017.36
2018-02-18T02:53:49.234Z,1017.40
2018-02-18T02:55:42.026Z,1017.32
2018-02-18T02:56:41.985Z,1017.31
2018-02-18T02:58:34.887Z,1017.29
2018-02-18T02:59:34.767Z,1017.29
2018-02-18T03:01:27.716Z,1017.29
2018-02-18T03:02:27.666Z,1017.31
2018-02-18T03:04:20.620Z,1017.25
2018-02-18T03:05:20.565Z,1017.29
2018-02-18T03:07:13.555Z,1017.29
2018-02-18T03:08:13.502Z,1017.30
2018-02-18T03:10:06.481Z,1017.27
2018-02-18T03:11:06.410Z,1017.26
2018-02-18T03:12:59.390Z,1017.24
2018-02-18T03:13:59.315Z,1017.23
2018-02-18T03:15:52.256Z,1017.22
2018-02-18T03:16:52.221Z,1017.19
2018-02-18T03:18:45.012Z,1017.19
2018-02-18T03:19:44.953Z,1017.16
2018-02-18T03:21:37.963Z,1017.13
2018-02-18T03:22:37.883Z,1017.16
2018-02-18T03:24:30.830Z,1017.13
2018-02-18T03:25:30.779Z,1017.13
2018-02-18T03:27:23.781Z,1017.09
2018-02-18T03:28:23.737Z,1017.09
2018-02-18T03:30:16.707Z,1017.06
2018-02-18T03:31:16.605Z,1017.02
2018-02-18T03:33:09.430Z,1017.06
2018-02-18T03:34:09.332Z,1017.06
2018-02-18T03:36:02.300Z,1017.10
2018-02-18T03:37:02.236Z,1017.09
2018-02-18T03:38:55.171Z,1017.13
2018-02-18T03:39:55.133Z,1017.13
2018-02-18T03:41:48.355Z,1017.11
2018-02-18T03:42:48.192Z,1017.11
2018-02-18T03:44:41.202Z,1017.08
2018-02-18T03:45:41.136Z,1017.10
2018-02-18T03:47:34.098Z,1017.08
2018-02-18T03:48:34.053Z,1017.03
2018-02-18T03:50:27.197Z,1017.07
2018-02-18T03:51:27.088Z,1017.05
2018-02-18T03:53:20.046Z,1017.04
2018-02-18T03:54:19.982Z,1017.10
2018-02-18T03:56:12.939Z,1017.09
2018-02-18T03:57:12.891Z,1017.05
2018-02-18T03:59:06.005Z,1017.03
2018-02-18T04:00:05.954Z,1017.06
2018-02-18T04:01:58.925Z,1017.05
2018-02-18T04:02:58.856Z,1017.11
2018-02-18T04:04:51.798Z,1017.08
2018-02-18T04:05:51.764Z,1017.08
2018-02-18T04:07:44.810Z,1017.10
2018-02-18T04:08:44.733Z,1017.09
2018-02-18T04:10:37.678Z,1017.10
2018-02-18T04:11:37.637Z,1017.12
2018-02-18T04:13:30.587Z,1017.15
2018-02-18T04:14:30.532Z,1017.15
2018-02-18T04:16:23.318Z,1017.20
2018-02-18T04:17:23.272Z,1017.19
2018-02-18T04:19:16.414Z,1017.19
2018-02-18T04:20:16.298Z,1017.22
2018-02-18T04:22:09.322Z,1017.23
2018-02-18T04:23:09.212Z,1017.22
2018-02-18T04:25:02.167Z,1017.24
2018-02-18T04:26:02.117Z,1017.25
2018-02-18T04:27:55.193Z,1017.28
2018-02-18T04:28:54.997Z,1017.33
2018-02-18T04:30:48.096Z,1017.34
2018-02-18T04:31:48.042Z,1017.36
2018-02-18T04:33:40.988Z,1017.38
2018-02-18T04:34:40.921Z,1017.38
2018-02-18T04:36:34.085Z,1017.38
2018-02-18T04:37:34.003Z,1017.42
2018-02-18T04:39:26.963Z,1017.44
2018-02-18T04:40:26.898Z,1017.42
2018-02-18T04:42:19.861Z,1017.42
2018-02-18T04:43:19.802Z,1017.42
2018-02-18T04:45:12.597Z,1017.37
2018-02-18T04:46:12.558Z,1017.38
2018-02-18T04:48:05.592Z,1017.36
2018-02-18T04:49:05.332Z,1017.34
2018-02-18T04:50:58.287Z,1017.33
2018-02-18T04:51:58.241Z,1017.33
2018-02-18T04:53:51.192Z,1017.35
2018-02-18T04:54:51.236Z,1017.35
2018-02-18T04:56:43.937Z,1017.36
2018-02-18T04:57:43.883Z,1017.34
2018-02-18T04:59:37.066Z,1017.30
2018-02-18T05:00:36.943Z,1017.31
2018-02-18T05:02:29.887Z,1017.30
2018-02-18T05:03:29.871Z,1017.31
2018-02-18T05:05:22.816Z,1017.32
2018-02-18T05:06:22.758Z,1017.37
2018-02-18T05:08:15.820Z,1017.34
2018-02-18T05:09:15.660Z,1017.35
2018-02-18T05:11:08.615Z,1017.34
2018-02-18T05:12:08.558Z,1017.37
2018-02-18T05:14:01.545Z,1017.35
2018-02-18T05:15:01.476Z,1017.38
2018-02-18T05:16:54.262Z,1017.37
2018-02-18T05:17:54.216Z,1017.39
2018-02-18T05:19:47.387Z,1017.41
2018-02-18T05:20:47.292Z,1017.40
2018-02-18T05:22:40.237Z,1017.38
2018-02-18T05:23:40.184Z,1017.35
2018-02-18T05:25:33.145Z,1017.39
2018-02-18T05:26:33.081Z,1017.37
2018-02-18T05:28:26.252Z,1017.36
2018-02-18T05:29:26.218Z,1017.37
2018-02-18T05:31:19.180Z,1017.33
2018-02-18T05:32:19.102Z,1017.33
2018-02-18T05:34:12.053Z,1017.38
2018-02-18T05:35:11.987Z,1017.37
2018-02-18T05:37:05.026Z,1017.41
2018-02-18T05:38:04.844Z,1017.42
2018-02-18T05:39:57.795Z,1017.44
2018-02-18T05:40:57.738Z,1017.48
2018-02-18T05:42:50.666Z,1017.49
2018-02-18T05:43:50.678Z,1017.49
2018-02-18T05:45:43.580Z,1017.51
2018-02-18T05:46:43.502Z,1017.50
2018-02-18T05:48:36.596Z,1017.51
2018-02-18T05:49:36.543Z,1017.52
2018-02-18T05:51:29.588Z,1017.48
2018-02-18T05:52:29.512Z,1017.48
2018-02-18T05:54:22.481Z,1017.44
2018-02-18T05:55:22.437Z,1017.46
2018-02-18T05:57:15.271Z,1017.45
2018-02-18T05:58:15.191Z,1017.46
2018-02-18T06:00:08.190Z,1017.51
2018-02-18T06:01:08.144Z,1017.50
2018-02-18T06:03:01.100Z,1017.49
2018-02-18T06:04:01.034Z,1017.45
2018-02-18T06:05:54.276Z,1017.42
2018-02-18T06:06:54.124Z,1017.39
2018-02-18T06:08:47.061Z,1017.43
2018-02-18T06:09:47.005Z,1017.40
2018-02-18T06:11:39.957Z,1017.46
2018-02-18T06:12:39.909Z,1017.49
2018-02-18T06:14:33.061Z,1017.51
2018-02-18T06:15:33.000Z,1017.50
2018-02-18T06:17:25.976Z,1017.49
2018-02-18T06:18:25.909Z,1017.48
2018-02-18T06:20:18.858Z,1017.42
2018-02-18T06:21:18.807Z,1017.44
2018-02-18T06:23:12.024Z,1017.42
2018-02-18T06:24:11.894Z,1017.40
2018-02-18T06:26:04.847Z,1017.39
2018-02-18T06:27:04.796Z,1017.37
2018-02-18T06:28:57.766Z,1017.38
2018-02-18T06:29:57.714Z,1017.39
2018-02-18T06:31:50.848Z,1017.37
2018-02-18T06:32:50.757Z,1017.37
2018-02-18T06:34:43.726Z,1017.37
2018-02-18T06:35:43.649Z,1017.39
2018-02-18T06:37:36.614Z,1017.33
2018-02-18T06:38:36.533Z,1017.37
2018-02-18T06:40:29.673Z,1017.40
2018-02-18T06:41:29.613Z,1017.37
2018-02-18T06:43:22.596Z,1017.38
2018-02-18T06:44:22.537Z,1017.36
2018-02-18T06:46:15.497Z,1017.37
2018-02-18T06:47:15.453Z,1017.32
2018-02-18T06:49:08.348Z,1017.32
2018-02-18T06:50:08.282Z,1017.31
2018-02-18T06:52:01.218Z,1017.35
2018-02-18T06:53:01.169Z,1017.40
2018-02-18T06:54:54.142Z,1017.44
2018-02-18T06:55:54.096Z,1017.50
2018-02-18T06:57:47.023Z,1017.49
2018-02-18T06:58:46.984Z,1017.51
2018-02-18T07:00:39.814Z,1017.57
2018-02-18T07:01:39.765Z,1017.57
2018-02-18T07:03:32.741Z,1017.61
2018-02-18T07:04:32.654Z,1017.63
2018-02-18T07:06:25.451Z,1017.64
2018-02-18T07:07:25.408Z,1017.64
2018-02-18T07:09:18.369Z,1017.66
2018-02-18T07:10:18.354Z,1017.62
2018-02-18T07:12:11.417Z,1017.64
2018-02-18T07:13:11.357Z,1017.64
2018-02-18T07:15:04.346Z,1017.66
2018-02-18T07:16:04.248Z,1017.67
2018-02-18T07:17:57.192Z,1017.64
2018-02-18T07:18:57.141Z,1017.61
2018-02-18T07:20:50.358Z,1017.64
2018-02-18T07:21:50.264Z,1017.64
2018-02-18T07:23:43.195Z,1017.62
2018-02-18T07:24:43.140Z,1017.63
2018-02-18T07:26:36.105Z,1017.66
2018-02-18T07:27:36.054Z,1017.70
2018-02-18T07:29:29.218Z,1017.71
2018-02-18T07:30:29.176Z,1017.73
2018-02-18T07:32:22.193Z,1017.71
2018-02-18T07:33:22.121Z,1017.70
2018-02-18T07:35:15.070Z,1017.67
2018-02-18T07:36:14.997Z,1017.60
2018-02-18T07:38:07.788Z,1017.55
2018-02-18T07:39:07.752Z,1017.55
2018-02-18T07:41:00.786Z,1017.54
2018-02-18T07:42:00.703Z,1017.60
2018-02-18T07:43:53.654Z,1017.58
2018-02-18T07:44:53.607Z,1017.58
2018-02-18T07:46:46.412Z,1017.59
2018-02-18T07:47:46.356Z,1017.60
2018-02-18T07:49:39.551Z,1017.58
2018-02-18T07:50:39.410Z,1017.61
2018-02-18T07:52:32.429Z,1017.59
2018-02-18T07:53:32.366Z,1017.60
2018-02-18T07:55:25.298Z,1017.60
2018-02-18T07:56:25.254Z,1017.60
2018-02-18T07:58:18.450Z,1017.59
2018-02-18T07:59:18.324Z,1017.61
2018-02-18T08:01:11.763Z,1017.56
2018-02-18T08:02:11.230Z,1017.62
2018-02-18T08:04:04.260Z,1017.61
2018-02-18T08:05:04.212Z,1017.58
2018-02-18T08:06:57.200Z,1017.61
2018-02-18T08:07:57.117Z,1017.59
2018-02-18T08:09:50.072Z,1017.55
2018-02-18T08:10:50.008Z,1017.53
2018-02-18T08:12:42.966Z,1017.50
2018-02-18T08:13:42.887Z,1017.52
2018-02-18T08:15:36.110Z,1017.47
2018-02-18T08:16:36.018Z,1017.47
2018-02-18T08:18:28.998Z,1017.50
2018-02-18T08:19:28.928Z,1017.49
2018-02-18T08:21:21.879Z,1017.52
2018-02-18T08:22:21.828Z,1017.50
2018-02-18T08:24:14.644Z,1017.52
2018-02-18T08:25:14.569Z,1017.51
2018-02-18T08:27:07.373Z,1017.49
2018-02-18T08:28:07.324Z,1017.51
2018-02-18T08:30:00.297Z,1017.46
2018-02-18T08:31:00.235Z,1017.50
2018-02-18T08:32:53.202Z,1017.53
2018-02-18T08:33:53.122Z,1017.51
2018-02-18T08:35:46.061Z,1017.58
2018-02-18T08:36:46.017Z,1017.58
2018-02-18T08:38:38.838Z,1017.60
2018-02-18T08:39:38.764Z,1017.58
2018-02-18T08:41:31.577Z,1017.56
2018-02-18T08:42:31.532Z,1017.55
2018-02-18T08:44:24.454Z,1017.55
2018-02-18T08:45:24.430Z,1017.58
2018-02-18T08:47:17.431Z,1017.52
2018-02-18T08:48:17.328Z,1017.57
2018-02-18T08:50:10.624Z,1017.54
2018-02-18T08:51:10.439Z,1017.53
2018-02-18T08:53:03.395Z,1017.58
2018-02-18T08:54:03.328Z,1017.57
2018-02-18T08:55:56.291Z,1017.56
2018-02-18T08:56:56.215Z,1017.58
2018-02-18T08:58:49.322Z,1017.63
2018-02-18T08:59:49.256Z,1017.64
2018-02-18T09:01:42.234Z,1017.68
2018-02-18T09:02:42.156Z,1017.67
2018-02-18T09:04:35.138Z,1017.73
2018-02-18T09:05:35.064Z,1017.73
2018-02-18T09:07:28.301Z,1017.77
2018-02-18T09:08:28.118Z,1017.83
2018-02-18T09:10:21.141Z,1017.82
2018-02-18T09:11:21.079Z,1017.84
2018-02-18T09:13:14.017Z,1017.84
2018-02-18T09:14:13.978Z,1017.84
2018-02-18T09:16:06.819Z,1017.82
2018-02-18T09:17:06.721Z,1017.82
2018-02-18T09:18:59.575Z,1017.83
2018-02-18T09:19:59.530Z,1017.83
2018-02-18T09:21:52.485Z,1017.78
2018-02-18T09:22:52.434Z,1017.81
2018-02-18T09:24:45.368Z,1017.77
2018-02-18T09:25:45.336Z,1017.77
2018-02-18T09:27:38.314Z,1017.76
2018-02-18T09:28:38.215Z,1017.78
2018-02-18T09:30:31.031Z,1017.80
2018-02-18T09:31:30.989Z,1017.81
2018-02-18T09:33:23.858Z,1017.85
2018-02-18T09:34:23.780Z,1017.84
2018-02-18T09:36:16.729Z,1017.82
2018-02-18T09:37:16.700Z,1017.81
2018-02-18T09:39:09.507Z,1017.83
2018-02-18T09:40:09.459Z,1017.84
2018-02-18T09:42:02.483Z,1017.88
2018-02-18T09:43:02.403Z,1017.91
2018-02-18T09:44:55.480Z,1017.90
2018-02-18T09:45:55.540Z,1017.94
2018-02-18T09:47:48.395Z,1017.91
2018-02-18T09:48:48.325Z,1017.95
2018-02-18T09:50:41.239Z,1017.93
2018-02-18T09:51:41.202Z,1017.95
2018-02-18T09:53:34.019Z,1017.93
2018-02-18T09:54:33.972Z,1017.98
2018-02-18T09:56:26.752Z,1017.92
2018-02-18T09:57:26.723Z,1017.99
2018-02-18T09:59:19.675Z,1018.06
2018-02-18T10:00:19.615Z,1018.56
2018-02-18T10:02:12.542Z,1020.66
2018-02-18T10:03:12.499Z,1020.78
2018-02-18T10:05:05.658Z,1020.95
2018-02-18T10:06:05.598Z,1020.97
2018-02-18T10:07:58.561Z,1021.05
2018-02-18T10:08:58.475Z,1020.97
2018-02-18T10:10:51.440Z,1020.85
2018-02-18T10:11:51.410Z,1020.75
2018-02-18T10:13:44.700Z,1020.70
2018-02-18T10:14:44.511Z,1020.66
2018-02-18T10:16:37.475Z,1020.65
2018-02-18T10:17:37.440Z,1020.59
2018-02-18T10:19:30.422Z,1020.60
2018-02-18T10:20:30.395Z,1020.64
2018-02-18T10:22:23.262Z,1020.54
2018-02-18T10:23:23.207Z,1020.41
2018-02-18T10:25:16.204Z,1020.32
2018-02-18T10:26:16.131Z,1020.23
2018-02-18T10:28:08.954Z,1020.26
2018-02-18T10:29:08.925Z,1020.16
2018-02-18T10:31:01.908Z,1020.22
2018-02-18T10:32:01.864Z,1020.16
2018-02-18T10:33:54.904Z,1020.18
2018-02-18T10:34:54.882Z,1020.09
2018-02-18T10:36:47.908Z,1019.90
2018-02-18T10:37:47.880Z,1019.86
2018-02-18T10:39:41.052Z,1019.88
2018-02-18T10:40:40.992Z,1019.76
2018-02-18T10:42:33.985Z,1019.72
2018-02-18T10:43:33.936Z,1019.78
2018-02-18T10:45:26.892Z,1019.66
2018-02-18T10:46:26.921Z,1019.68
2018-02-18T10:48:19.713Z,1019.68
2018-02-18T10:49:19.660Z,1019.62
2018-02-18T10:51:12.716Z,1019.56
2018-02-18T10:52:12.621Z,1019.58
2018-02-18T10:54:05.576Z,1019.41
2018-02-18T10:55:05.571Z,1019.43
2018-02-18T10:56:58.559Z,1019.21
2018-02-18T10:57:58.495Z,1019.39
2018-02-18T10:59:51.326Z,1019.15
2018-02-18T11:00:51.310Z,1019.30
2018-02-18T11:02:44.315Z,1019.11
2018-02-18T11:03:44.286Z,1019.28
2018-02-18T11:05:37.262Z,1019.16
2018-02-18T11:06:37.225Z,1019.11
2018-02-18T11:08:30.401Z,1019.10
2018-02-18T11:09:30.330Z,1019.13
2018-02-18T11:11:23.344Z,1019.17
2018-02-18T11:12:23.271Z,1019.16
2018-02-18T11:14:16.229Z,1019.14
2018-02-18T11:15:16.203Z,1019.08
2018-02-18T11:17:09.226Z,1019.09
2018-02-18T11:18:09.044Z,1018.92
2018-02-18T11:20:02.024Z,1019.00
2018-02-18T11:21:01.995Z,1018.64
2018-02-18T11:22:54.993Z,1018.62
2018-02-18T11:23:54.935Z,1018.46
2018-02-18T11:25:48.075Z,1018.81
2018-02-18T11:26:48.042Z,1018.66
2018-02-18T11:28:41.015Z,1018.83
2018-02-18T11:29:40.959Z,1018.88
2018-02-18T11:31:33.936Z,1018.89
2018-02-18T11:32:33.924Z,1018.95
2018-02-18T11:34:26.761Z,1018.62
2018-02-18T11:35:26.735Z,1018.72
2018-02-18T11:37:19.701Z,1018.70
2018-02-18T11:38:19.671Z,1018.74
2018-02-18T11:40:12.656Z,1018.55
2018-02-18T11:41:12.612Z,1018.60
2018-02-18T11:43:05.822Z,1018.64
2018-02-18T11:44:05.727Z,1018.76
2018-02-18T11:45:58.697Z,1018.51
2018-02-18T11:46:58.680Z,1018.14
2018-02-18T11:48:51.543Z,1018.43
2018-02-18T11:49:51.488Z,1018.61
2018-02-18T11:51:44.314Z,1018.54
2018-02-18T11:52:44.302Z,1018.59
2018-02-18T11:54:37.278Z,1018.40
2018-02-18T11:55:37.256Z,1018.30
2018-02-18T11:57:30.228Z,1018.58
2018-02-18T11:58:30.185Z,1018.42
2018-02-18T12:00:23.194Z,1018.45
2018-02-18T12:01:23.130Z,1018.52
2018-02-18T12:03:16.131Z,1018.44
2018-02-18T12:04:16.088Z,1018.19
2018-02-18T12:06:09.064Z,1018.03
2018-02-18T12:07:09.032Z,1018.07
2018-02-18T12:09:02.017Z,1018.20
2018-02-18T12:10:01.959Z,1018.06
2018-02-18T12:11:55.003Z,1018.17
2018-02-18T12:12:54.921Z,1018.00
2018-02-18T12:14:47.892Z,1018.03
2018-02-18T12:15:47.851Z,1017.87
2018-02-18T12:17:40.889Z,1018.09
2018-02-18T12:18:40.872Z,1018.03
2018-02-18T12:20:33.875Z,1018.01
2018-02-18T12:21:33.815Z,1017.90
2018-02-18T12:23:26.787Z,1017.85
2018-02-18T12:24:26.743Z,1017.94
2018-02-18T12:26:19.608Z,1017.85
2018-02-18T12:27:19.566Z,1018.00
2018-02-18T12:29:12.371Z,1017.92
2018-02-18T12:30:12.350Z,1018.06
2018-02-18T12:32:05.518Z,1017.84
2018-02-18T12:33:05.459Z,1018.02
2018-02-18T12:34:58.500Z,1017.97
2018-02-18T12:35:58.475Z,1017.88
2018-02-18T12:37:51.566Z,1017.80
2018-02-18T12:38:51.508Z,1017.60
2018-02-18T12:40:44.359Z,1017.60
2018-02-18T12:41:44.301Z,1017.38
2018-02-18T12:43:37.256Z,1017.56
2018-02-18T12:44:37.303Z,1017.49
2018-02-18T12:46:30.385Z,1017.40
2018-02-18T12:47:30.356Z,1017.55
2018-02-18T12:49:23.414Z,1017.56
2018-02-18T12:50:23.362Z,1017.27
2018-02-18T12:52:16.549Z,1017.17
2018-02-18T12:53:16.470Z,1017.15
2018-02-18T12:55:09.441Z,1017.27
2018-02-18T12:56:09.418Z,1017.32
2018-02-18T12:58:02.272Z,1017.40
2018-02-18T12:59:02.213Z,1017.29
2018-02-18T13:00:55.382Z,1017.25
2018-02-18T13:01:55.330Z,1017.21
2018-02-18T13:03:48.316Z,1016.97
2018-02-18T13:04:48.260Z,1016.90
2018-02-18T13:06:41.075Z,1016.84
2018-02-18T13:07:41.104Z,1016.93
2018-02-18T13:09:34.026Z,1017.10
2018-02-18T13:10:33.985Z,1017.10
2018-02-18T13:12:26.991Z,1017.06
2018-02-18T13:13:26.785Z,1017.08
2018-02-18T13:15:19.751Z,1017.12
2018-02-18T13:16:19.717Z,1017.01
2018-02-18T13:18:12.836Z,1016.85
2018-02-18T13:19:12.781Z,1016.78
2018-02-18T13:21:05.810Z,1016.87
2018-02-18T13:22:05.611Z,1016.91
2018-02-18T13:23:58.542Z,1016.85
2018-02-18T13:24:58.490Z,1016.85
2018-02-18T13:26:51.480Z,1016.81
2018-02-18T13:27:51.404Z,1016.86
2018-02-18T13:29:44.609Z,1016.91
2018-02-18T13:30:44.566Z,1016.86
2018-02-18T13:32:37.605Z,1016.96
2018-02-18T13:33:37.482Z,1016.95
2018-02-18T13:35:30.429Z,1017.00
2018-02-18T13:36:30.417Z,1017.00
2018-02-18T13:38:23.233Z,1017.06
2018-02-18T13:39:23.185Z,1017.03
2018-02-18T13:41:16.001Z,1016.99
2018-02-18T13:42:15.965Z,1017.00
2018-02-18T13:44:08.976Z,1016.88
2018-02-18T13:45:08.910Z,1016.77
2018-02-18T13:47:01.888Z,1016.83
2018-02-18T13:48:01.836Z,1016.85
2018-02-18T13:49:54.658Z,1016.85
2018-02-18T13:50:54.615Z,1016.79
2018-02-18T13:52:47.432Z,1016.80
2018-02-18T13:53:47.407Z,1016.83
2018-02-18T13:55:40.375Z,1016.84
2018-02-18T13:56:40.326Z,1016.84
2018-02-18T13:58:33.277Z,1016.84
2018-02-18T13:59:33.254Z,1016.79
2018-02-18T14:01:26.539Z,1016.84
2018-02-18T14:02:26.338Z,1016.83
2018-02-18T14:04:19.320Z,1016.75
2018-02-18T14:05:19.295Z,1016.81
2018-02-18T14:07:12.262Z,1016.80
2018-02-18T14:08:12.206Z,1016.84
2018-02-18T14:10:05.434Z,1016.80
2018-02-18T14:11:05.397Z,1016.84
2018-02-18T14:12:58.533Z,1016.83
2018-02-18T14:13:58.471Z,1016.73
2018-02-18T14:15:51.351Z,1016.64
2018-02-18T14:16:51.320Z,1016.69
2018-02-18T14:18:44.222Z,1016.61
2018-02-18T14:19:44.201Z,1016.70
2018-02-18T14:21:37.172Z,1016.73
2018-02-18T14:22:37.124Z,1016.74
2018-02-18T14:24:30.063Z,1016.80
2018-02-18T14:25:30.037Z,1016.73
2018-02-18T14:27:22.865Z,1016.71
2018-02-18T14:28:22.809Z,1016.70
2018-02-18T14:30:15.776Z,1016.66
2018-02-18T14:31:15.738Z,1016.76
2018-02-18T14:33:08.692Z,1016.70
2018-02-18T14:34:08.655Z,1016.70
2018-02-18T14:36:01.613Z,1016.61
2018-02-18T14:37:01.586Z,1016.60
2018-02-18T14:38:54.502Z,1016.57
2018-02-18T14:39:54.362Z,1016.57
2018-02-18T14:41:47.301Z,1016.66
2018-02-18T14:42:47.274Z,1016.65
2018-02-18T14:44:40.262Z,1016.56
2018-02-18T14:45:40.215Z,1016.56
2018-02-18T14:47:33.449Z,1016.44
2018-02-18T14:48:33.335Z,1016.44
2018-02-18T14:50:26.293Z,1016.42
2018-02-18T14:51:26.247Z,1016.37
2018-02-18T14:53:19.086Z,1016.39
2018-02-18T14:54:19.047Z,1016.41
2018-02-18T14:56:12.160Z,1016.35
2018-02-18T14:57:12.121Z,1016.39
2018-02-18T14:59:05.106Z,1016.33
2018-02-18T15:00:05.036Z,1016.35
2018-02-18T15:01:57.992Z,1016.33
2018-02-18T15:02:57.938Z,1016.32
2018-02-18T15:04:51.152Z,1016.24
2018-02-18T15:05:51.069Z,1016.25
2018-02-18T15:07:44.001Z,1016.23
2018-02-18T15:08:43.984Z,1016.26
2018-02-18T15:10:36.974Z,1016.29
2018-02-18T15:11:36.882Z,1016.29
2018-02-18T15:13:29.802Z,1016.30
2018-02-18T15:14:29.753Z,1016.27
2018-02-18T15:16:22.628Z,1016.17
2018-02-18T15:17:22.524Z,1016.18
2018-02-18T15:19:15.489Z,1016.13
2018-02-18T15:20:15.432Z,1016.13
2018-02-18T15:22:08.370Z,1016.21
2018-02-18T15:23:08.336Z,1016.19
2018-02-18T15:25:01.168Z,1016.24
2018-02-18T15:26:01.111Z,1016.23
2018-02-18T15:27:53.916Z,1016.24
2018-02-18T15:28:53.891Z,1016.26
2018-02-18T15:30:46.741Z,1016.23
2018-02-18T15:31:46.656Z,1016.22
2018-02-18T15:33:39.601Z,1016.19
2018-02-18T15:34:39.561Z,1016.15
2018-02-18T15:36:32.414Z,1016.17
2018-02-18T15:37:32.401Z,1016.19
2018-02-18T15:39:25.183Z,1016.16
2018-02-18T15:40:25.096Z,1016.19
2018-02-18T15:42:17.927Z,1016.14
2018-02-18T15:43:17.872Z,1016.15
2018-02-18T15:45:10.865Z,1016.19
2018-02-18T15:46:10.815Z,1016.17
2018-02-18T15:48:03.737Z,1016.17
2018-02-18T15:49:03.692Z,1016.14
2018-02-18T15:50:56.644Z,1016.12
2018-02-18T15:51:56.587Z,1016.13
2018-02-18T15:53:49.399Z,1016.12
2018-02-18T15:54:49.355Z,1016.07
2018-02-18T15:56:42.198Z,1016.03
2018-02-18T15:57:42.131Z,1016.07
2018-02-18T15:59:35.062Z,1015.97
2018-02-18T16:00:35.029Z,1015.96
2018-02-18T16:02:28.007Z,1015.94
2018-02-18T16:03:27.938Z,1015.94
2018-02-18T16:05:20.752Z,1015.93
2018-02-18T16:06:20.699Z,1015.91
2018-02-18T16:08:13.623Z,1015.89
2018-02-18T16:09:13.557Z,1015.89
2018-02-18T16:11:06.497Z,1015.90
2018-02-18T16:12:06.461Z,1015.87
2018-02-18T16:13:59.418Z,1015.93
2018-02-18T16:14:59.449Z,1015.94
2018-02-18T16:16:52.334Z,1015.90
2018-02-18T16:17:52.265Z,1015.93
2018-02-18T16:19:45.145Z,1015.93
2018-02-18T16:20:45.103Z,1015.93
2018-02-18T16:22:38.049Z,1015.93
2018-02-18T16:23:37.982Z,1015.93
2018-02-18T16:25:30.917Z,1015.90
2018-02-18T16:26:30.896Z,1015.91
2018-02-18T16:28:24.196Z,1015.87
2018-02-18T16:29:23.968Z,1015.83
2018-02-18T16:31:16.944Z,1015.88
2018-02-18T16:32:17.021Z,1015.89
2018-02-18T16:34:09.895Z,1015.91
2018-02-18T16:35:09.854Z,1015.92
2018-02-18T16:37:02.983Z,1015.92
2018-02-18T16:38:02.951Z,1015.95
2018-02-18T16:39:55.883Z,1015.93
2018-02-18T16:40:55.828Z,1015.93
2018-02-18T16:42:48.777Z,1015.86
2018-02-18T16:43:48.725Z,1015.87
2018-02-18T16:45:41.754Z,1015.89
2018-02-18T16:46:41.616Z,1015.89
2018-02-18T16:48:34.558Z,1015.92
2018-02-18T16:49:34.512Z,1015.91
2018-02-18T16:51:27.502Z,1015.94
2018-02-18T16:52:27.430Z,1015.93
2018-02-18T16:54:20.561Z,1015.92
2018-02-18T16:55:20.515Z,1015.90
2018-02-18T16:57:13.488Z,1015.88
2018-02-18T16:58:13.431Z,1015.86
2018-02-18T17:00:06.387Z,1015.85
2018-02-18T17:01:06.330Z,1015.90
2018-02-18T17:02:59.565Z,1015.93
2018-02-18T17:03:59.411Z,1015.95
2018-02-18T17:05:52.377Z,1015.92
2018-02-18T17:06:52.296Z,1015.89
2018-02-18T17:08:45.755Z,1015.88
2018-02-18T17:09:45.219Z,1015.86
2018-02-18T17:11:38.412Z,1015.86
2018-02-18T17:12:38.345Z,1015.88
2018-02-18T17:14:31.272Z,1015.89
2018-02-18T17:15:31.235Z,1015.90
2018-02-18T17:17:24.196Z,1015.94
2018-02-18T17:18:24.163Z,1015.93
2018-02-18T17:20:17.459Z,1015.96
2018-02-18T17:21:17.352Z,1015.93
2018-02-18T17:23:10.198Z,1015.90
2018-02-18T17:24:10.115Z,1015.90
2018-02-18T17:26:02.945Z,1015.87